Eureka, CA (95501)

1:00 PM PDT on August 30, 2015 (GMT -0700)
Henderson Center | | Change Station
CLOSE
Current Station
Personal Weather Station
Location: Eureka, CA
Elevation: 135 ft
Nearby Weather Stations

Elev 135 ft 40.78 °N, 124.16 °W | Updated 16 seconds ago

Overcast
Overcast
70.2 °F
Feels Like 70.2 °F
N
6.5
Wind Variable Wind from NNW
Gusts 7.4 mph

Today
High -- | Low -- °F
--% Chance of Precip.
Yesterday
High -- | Low -- °F
Precip. -- in
6:41 AM 7:52 PM
Full, 98% visible
Pressure 30.12 in
Visibility 10.0 miles
Clouds Few 2600 ft
Mostly Cloudy 3100 ft
Overcast 6500 ft
Dew Point 65 °F
Humidity 83%
Rainfall 0.00 in
Snow Depth Not available.
UV 5.0 out of 12
Pollen 5.50 out of 12
Air Quality Not available.
Flu Activity Not available.
METAR KACV 301953Z AUTO 29004KT 10SM FEW026 BKN031 OVC065 20/15 A3011 RMK AO2 RAB37E50 SLP200 P0000 T02000150
Pressure 30.12 in
Visibility 10.0 miles
Clouds Few 2600 ft
Mostly Cloudy 3100 ft
Overcast 6500 ft
Dew Point 65 °F
Humidity 83%
Rainfall 0.00 in
Snow Depth Not available.
UV 5.0 out of 12
Pollen 5.50 out of 12
Air Quality Not available.
Flu Activity Not available.
METAR KACV 301953Z AUTO 29004KT 10SM FEW026 BKN031 OVC065 20/15 A3011 RMK AO2 RAB37E50 SLP200 P0000 T02000150

10-Day Weather Forecast

×

Almanac

Astronomy

Aug. 30, 2015 Rise Set
Actual Time
Civil Twilight
Nautical Twilight
Astronomical Twilight
Moon
Length of Visible Light
Length of Day
Tomorrow will be .
, % of the Moon is Illuminated

Today's Extremes

State Highs State Lows

Community

WunderPhotos

Upload Photos

1,851,041 photos uploaded!

WunderBlogs® & News

Nearby

Air Quality

  Air Quality AQ Index Pollutant
Not available.

Snow Depth

Station Depth Elevation

Earthquake Activity

City Distance Mag. Time & Date
Minimum magnitude displayed is 2.5.

Coastal Water Temperatures

Place Temperature

Stations

Nearby Weather Stations

Station Location Temp. Windchill Dew Point Humidity Wind Precip. Elev Updated Type